createdAt,value
2023-01-15T00:00:04.450Z,950.65
2023-01-15T00:00:59.518Z,950.61
2023-01-15T00:01:54.499Z,950.59
2023-01-15T00:02:49.658Z,950.59
2023-01-15T00:03:44.675Z,950.55
2023-01-15T00:04:39.780Z,950.53
2023-01-15T00:05:34.915Z,950.47
2023-01-15T00:06:29.818Z,950.51
2023-01-15T00:07:24.911Z,950.43
2023-01-15T00:08:19.971Z,950.41
2023-01-15T00:09:15.006Z,950.41
2023-01-15T00:10:10.130Z,950.43
2023-01-15T00:11:05.980Z,950.45
2023-01-15T00:12:01.067Z,950.49
2023-01-15T00:12:56.162Z,950.49
2023-01-15T00:13:52.696Z,950.49
2023-01-15T00:14:47.879Z,950.49
2023-01-15T00:15:43.863Z,950.43
2023-01-15T00:16:38.929Z,950.43
2023-01-15T00:17:33.917Z,950.41
2023-01-15T00:18:29.836Z,950.39
2023-01-15T00:19:25.097Z,950.37
2023-01-15T00:20:20.912Z,950.37
2023-01-15T00:21:15.924Z,950.31
2023-01-15T00:22:11.252Z,950.30
2023-01-15T00:23:07.099Z,950.28
2023-01-15T00:24:02.150Z,950.28
2023-01-15T00:24:57.422Z,950.31
2023-01-15T00:25:53.690Z,950.24
2023-01-15T00:26:48.887Z,950.20
2023-01-15T00:27:44.859Z,950.18
2023-01-15T00:28:39.983Z,950.16
2023-01-15T00:29:35.224Z,950.12
2023-01-15T00:30:30.959Z,950.08
2023-01-15T00:31:26.115Z,950.06
2023-01-15T00:32:22.089Z,950.06
2023-01-15T00:33:17.084Z,950.02
2023-01-15T00:34:12.645Z,950.04
2023-01-15T00:35:08.367Z,950.06
2023-01-15T00:36:03.409Z,950.02
2023-01-15T00:36:58.655Z,950.02
2023-01-15T00:37:55.069Z,950.00
2023-01-15T00:38:50.296Z,950.02
2023-01-15T00:39:46.137Z,950.02
2023-01-15T00:40:41.239Z,950.02
2023-01-15T00:41:36.632Z,950.02
2023-01-15T00:42:32.358Z,950.04
2023-01-15T00:43:27.556Z,950.04
2023-01-15T00:44:23.665Z,950.02
2023-01-15T00:45:18.798Z,950.04
2023-01-15T00:46:14.223Z,950.04
2023-01-15T00:47:09.833Z,949.96
2023-01-15T00:48:04.966Z,949.94
2023-01-15T00:49:00.209Z,949.94
2023-01-15T00:49:56.692Z,949.88
2023-01-15T00:50:51.883Z,949.84
2023-01-15T00:51:47.665Z,949.77
2023-01-15T00:52:42.890Z,949.75
2023-01-15T00:53:38.318Z,949.80
2023-01-15T00:54:33.996Z,949.80
2023-01-15T00:55:29.282Z,949.80
2023-01-15T00:56:25.277Z,949.80
2023-01-15T00:57:20.397Z,949.79
2023-01-15T00:58:15.570Z,949.71
2023-01-15T00:59:11.490Z,949.73
2023-01-15T01:00:06.557Z,949.69
2023-01-15T01:01:01.898Z,949.65
2023-01-15T01:01:58.595Z,949.63
2023-01-15T01:02:53.443Z,949.61
2023-01-15T01:03:49.298Z,949.65
2023-01-15T01:04:44.556Z,949.65
2023-01-15T01:05:39.645Z,949.59
2023-01-15T01:06:35.497Z,949.61
2023-01-15T01:07:31.093Z,949.61
2023-01-15T01:08:26.773Z,949.59
2023-01-15T01:09:21.818Z,949.61
2023-01-15T01:10:16.947Z,949.61
2023-01-15T01:11:12.225Z,949.61
2023-01-15T01:12:07.193Z,949.63
2023-01-15T01:13:02.226Z,949.61
2023-01-15T01:13:57.266Z,949.61
2023-01-15T01:14:52.315Z,949.59
2023-01-15T01:15:47.413Z,949.57
2023-01-15T01:16:42.428Z,949.55
2023-01-15T01:17:37.461Z,949.53
2023-01-15T01:18:32.477Z,949.53
2023-01-15T01:19:33.257Z,949.47
2023-01-15T01:20:28.633Z,949.45
2023-01-15T01:21:23.802Z,949.43
2023-01-15T01:22:19.839Z,949.41
2023-01-15T01:23:14.739Z,949.41
2023-01-15T01:24:10.200Z,949.43
2023-01-15T01:25:06.326Z,949.43
2023-01-15T01:26:01.580Z,949.43
2023-01-15T01:26:57.422Z,949.43
2023-01-15T01:27:52.730Z,949.41
2023-01-15T01:28:47.813Z,949.41
2023-01-15T01:29:43.063Z,949.39
2023-01-15T01:30:38.102Z,949.37
2023-01-15T01:31:33.442Z,949.29
2023-01-15T01:32:28.688Z,949.28
2023-01-15T01:33:24.411Z,949.28
2023-01-15T01:34:19.438Z,949.33
2023-01-15T01:35:14.614Z,949.31
2023-01-15T01:36:10.313Z,949.24
2023-01-15T01:37:05.727Z,949.28
2023-01-15T01:38:00.884Z,949.22
2023-01-15T01:38:56.113Z,949.22
2023-01-15T01:39:51.118Z,949.24
2023-01-15T01:40:46.232Z,949.20
2023-01-15T01:41:41.226Z,949.18
2023-01-15T01:42:36.290Z,949.16
2023-01-15T01:43:31.297Z,949.14
2023-01-15T01:44:26.325Z,949.10
2023-01-15T01:45:21.418Z,949.12
2023-01-15T01:46:16.575Z,949.14
2023-01-15T01:47:11.595Z,949.10
2023-01-15T01:48:07.328Z,949.12
2023-01-15T01:49:01.813Z,949.12
2023-01-15T01:49:56.945Z,949.12
2023-01-15T01:50:52.057Z,949.10
2023-01-15T01:51:47.221Z,949.10
2023-01-15T01:52:42.210Z,949.06
2023-01-15T01:53:37.470Z,949.02
2023-01-15T01:54:32.358Z,949.04
2023-01-15T01:55:27.384Z,949.02
2023-01-15T01:56:22.365Z,948.98
2023-01-15T01:57:17.446Z,948.98
2023-01-15T01:58:12.450Z,948.96
2023-01-15T01:59:07.624Z,948.92
2023-01-15T02:00:05.844Z,948.86
2023-01-15T02:01:01.044Z,948.86
2023-01-15T02:01:56.286Z,948.80
2023-01-15T02:02:51.243Z,948.78
2023-01-15T02:03:46.268Z,948.80
2023-01-15T02:04:41.534Z,948.77
2023-01-15T02:05:36.420Z,948.75
2023-01-15T02:06:31.538Z,948.78
2023-01-15T02:07:26.551Z,948.67
2023-01-15T02:08:21.680Z,948.65
2023-01-15T02:09:16.855Z,948.59
2023-01-15T02:10:11.870Z,948.59
2023-01-15T02:11:06.859Z,948.61
2023-01-15T02:12:01.881Z,948.55
2023-01-15T02:12:57.123Z,948.57
2023-01-15T02:13:52.893Z,948.59
2023-01-15T02:14:48.036Z,948.57
2023-01-15T02:15:44.216Z,948.59
2023-01-15T02:16:39.290Z,948.57
2023-01-15T02:17:34.359Z,948.53
2023-01-15T02:18:30.184Z,948.55
2023-01-15T02:19:25.584Z,948.55
2023-01-15T02:20:20.724Z,948.55
2023-01-15T02:21:17.231Z,948.51
2023-01-15T02:22:12.360Z,948.53
2023-01-15T02:23:08.323Z,948.49
2023-01-15T02:24:03.497Z,948.53
2023-01-15T02:24:58.635Z,948.55
2023-01-15T02:25:54.723Z,948.47
2023-01-15T02:26:49.704Z,948.47
2023-01-15T02:27:45.794Z,948.51
2023-01-15T02:28:41.034Z,948.53
2023-01-15T02:29:36.145Z,948.49
2023-01-15T02:30:32.152Z,948.51
2023-01-15T02:31:27.493Z,948.51
2023-01-15T02:32:22.401Z,948.53
2023-01-15T02:33:19.018Z,948.53
2023-01-15T02:34:14.320Z,948.53
2023-01-15T02:35:10.144Z,948.51
2023-01-15T02:36:05.389Z,948.49
2023-01-15T02:37:00.665Z,948.51
2023-01-15T02:37:56.650Z,948.49
2023-01-15T02:38:51.718Z,948.49
2023-01-15T02:39:47.536Z,948.49
2023-01-15T02:40:42.669Z,948.43
2023-01-15T02:41:38.006Z,948.47
2023-01-15T02:42:33.932Z,948.41
2023-01-15T02:43:29.459Z,948.41
2023-01-15T02:44:24.459Z,948.39
2023-01-15T02:45:20.163Z,948.35
2023-01-15T02:46:15.346Z,948.33
2023-01-15T02:47:10.464Z,948.35
2023-01-15T02:48:06.992Z,948.37
2023-01-15T02:49:02.314Z,948.35
2023-01-15T02:49:57.977Z,948.39
2023-01-15T02:50:53.106Z,948.35
2023-01-15T02:51:48.368Z,948.35
2023-01-15T02:52:44.179Z,948.33
2023-01-15T02:53:39.187Z,948.35
2023-01-15T02:54:35.177Z,948.33
2023-01-15T02:55:30.316Z,948.29
2023-01-15T02:56:25.585Z,948.22
2023-01-15T02:57:20.714Z,948.26
2023-01-15T02:58:15.877Z,948.24
2023-01-15T02:59:10.880Z,948.26
2023-01-15T03:00:05.910Z,948.24
2023-01-15T03:01:01.151Z,948.28
2023-01-15T03:01:56.504Z,948.24
2023-01-15T03:02:51.498Z,948.24
2023-01-15T03:03:50.168Z,948.22
2023-01-15T03:04:45.163Z,948.24
2023-01-15T03:05:40.340Z,948.24
2023-01-15T03:06:35.467Z,948.24
2023-01-15T03:07:31.827Z,948.24
2023-01-15T03:08:27.046Z,948.28
2023-01-15T03:09:22.183Z,948.29
2023-01-15T03:10:17.448Z,948.29
2023-01-15T03:11:12.639Z,948.29
2023-01-15T03:12:08.556Z,948.28
2023-01-15T03:13:03.833Z,948.28
2023-01-15T03:13:58.797Z,948.28
2023-01-15T03:14:54.228Z,948.28
2023-01-15T03:15:49.203Z,948.29
2023-01-15T03:16:44.457Z,948.28
2023-01-15T03:17:39.337Z,948.26
2023-01-15T03:18:34.343Z,948.26
2023-01-15T03:19:29.408Z,948.28
2023-01-15T03:20:24.391Z,948.28
2023-01-15T03:21:19.765Z,948.29
2023-01-15T03:22:14.707Z,948.29
2023-01-15T03:23:09.673Z,948.31
2023-01-15T03:24:05.782Z,948.29
2023-01-15T03:25:00.878Z,948.29
2023-01-15T03:25:56.168Z,948.29
2023-01-15T03:26:51.317Z,948.20
2023-01-15T03:27:46.752Z,948.22
2023-01-15T03:28:41.590Z,948.22
2023-01-15T03:29:36.810Z,948.20
2023-01-15T03:30:32.128Z,948.26
2023-01-15T03:31:27.894Z,948.20
2023-01-15T03:32:23.147Z,948.20
2023-01-15T03:33:18.503Z,948.16
2023-01-15T03:34:14.188Z,948.14
2023-01-15T03:35:09.306Z,948.12
2023-01-15T03:36:05.116Z,948.14
2023-01-15T03:37:00.301Z,948.14
2023-01-15T03:37:55.706Z,948.20
2023-01-15T03:38:51.323Z,948.18
2023-01-15T03:39:46.898Z,948.20
2023-01-15T03:40:41.660Z,948.14
2023-01-15T03:41:38.550Z,948.14
2023-01-15T03:42:33.711Z,948.08
2023-01-15T03:43:29.778Z,948.10
2023-01-15T03:44:24.865Z,948.08
2023-01-15T03:45:20.148Z,948.08
2023-01-15T03:46:16.133Z,948.10
2023-01-15T03:47:11.164Z,948.10
2023-01-15T03:48:07.312Z,948.08
2023-01-15T03:49:02.303Z,948.12
2023-01-15T03:49:57.486Z,948.08
2023-01-15T03:50:53.426Z,948.02
2023-01-15T03:51:48.733Z,948.06
2023-01-15T03:52:43.913Z,948.02
2023-01-15T03:53:40.298Z,948.04
2023-01-15T03:54:35.418Z,948.00
2023-01-15T03:55:31.319Z,948.08
2023-01-15T03:56:26.309Z,948.04
2023-01-15T03:57:21.683Z,948.04
2023-01-15T03:58:17.558Z,948.02
2023-01-15T03:59:12.784Z,947.96
2023-01-15T04:00:08.717Z,948.08
2023-01-15T04:01:03.817Z,948.06
2023-01-15T04:01:58.915Z,948.02
2023-01-15T04:02:54.757Z,947.96
2023-01-15T04:03:49.931Z,948.02
2023-01-15T04:04:45.363Z,948.02
2023-01-15T04:05:41.590Z,947.98
2023-01-15T04:06:36.839Z,947.90
2023-01-15T04:07:32.578Z,947.90
2023-01-15T04:08:27.698Z,947.86
2023-01-15T04:09:23.146Z,947.92
2023-01-15T04:10:19.007Z,947.90
2023-01-15T04:11:14.014Z,948.00
2023-01-15T04:12:09.874Z,947.98
2023-01-15T04:13:05.249Z,947.92
2023-01-15T04:14:00.752Z,947.92
2023-01-15T04:14:56.364Z,947.96
2023-01-15T04:15:51.488Z,947.94
2023-01-15T04:16:46.589Z,947.92
2023-01-15T04:17:42.947Z,947.84
2023-01-15T04:18:38.419Z,947.80
2023-01-15T04:19:34.322Z,947.76
2023-01-15T04:20:29.276Z,947.88
2023-01-15T04:21:24.456Z,947.82
2023-01-15T04:22:20.540Z,947.82
2023-01-15T04:23:15.676Z,947.76
2023-01-15T04:24:11.369Z,947.69
2023-01-15T04:25:06.479Z,947.73
2023-01-15T04:26:02.025Z,947.69
2023-01-15T04:26:57.452Z,947.73
2023-01-15T04:27:52.678Z,947.71
2023-01-15T04:28:47.923Z,947.69
2023-01-15T04:29:44.397Z,947.69
2023-01-15T04:30:39.563Z,947.67
2023-01-15T04:31:34.686Z,947.71
2023-01-15T04:32:29.787Z,947.74
2023-01-15T04:33:26.536Z,947.78
2023-01-15T04:34:21.503Z,947.74
2023-01-15T04:35:16.658Z,947.76
2023-01-15T04:36:13.150Z,947.71
2023-01-15T04:37:08.312Z,947.71
2023-01-15T04:38:04.165Z,947.76
2023-01-15T04:38:59.205Z,947.69
2023-01-15T04:39:54.297Z,947.73
2023-01-15T04:40:50.300Z,947.71
2023-01-15T04:41:45.531Z,947.71
2023-01-15T04:42:41.447Z,947.71
2023-01-15T04:43:36.455Z,947.65
2023-01-15T04:44:31.671Z,947.67
2023-01-15T04:45:27.461Z,947.61
2023-01-15T04:46:22.845Z,947.63
2023-01-15T04:47:17.898Z,947.61
2023-01-15T04:48:14.727Z,947.63
2023-01-15T04:49:09.748Z,947.67
2023-01-15T04:50:05.061Z,947.71
2023-01-15T04:51:00.139Z,947.67
2023-01-15T04:51:55.450Z,947.65
2023-01-15T04:52:50.943Z,947.65
2023-01-15T04:53:46.020Z,947.69
2023-01-15T04:54:41.065Z,947.63
2023-01-15T04:55:37.006Z,947.59
2023-01-15T04:56:32.054Z,947.53
2023-01-15T04:57:27.183Z,947.57
2023-01-15T04:58:22.142Z,947.53
2023-01-15T04:59:17.382Z,947.51
2023-01-15T05:00:12.593Z,947.47
2023-01-15T05:01:09.233Z,947.41
2023-01-15T05:02:06.680Z,947.43
2023-01-15T05:02:59.476Z,947.45
2023-01-15T05:03:54.538Z,947.41
2023-01-15T05:04:49.665Z,947.37
2023-01-15T05:05:46.003Z,947.35
2023-01-15T05:06:41.078Z,947.33
2023-01-15T05:07:36.272Z,947.31
2023-01-15T05:08:31.484Z,947.39
2023-01-15T05:09:26.553Z,947.33
2023-01-15T05:10:21.881Z,947.37
2023-01-15T05:11:18.068Z,947.35
2023-01-15T05:12:13.268Z,947.43
2023-01-15T05:13:08.702Z,947.41
2023-01-15T05:14:03.688Z,947.47
2023-01-15T05:14:58.710Z,947.47
2023-01-15T05:15:53.879Z,947.47
2023-01-15T05:16:48.931Z,947.47
2023-01-15T05:17:44.142Z,947.41
2023-01-15T05:18:39.325Z,947.49
2023-01-15T05:19:34.270Z,947.49
2023-01-15T05:20:29.315Z,947.51
2023-01-15T05:21:24.431Z,947.45
2023-01-15T05:22:19.452Z,947.47
2023-01-15T05:23:14.506Z,947.43
2023-01-15T05:24:09.699Z,947.39
2023-01-15T05:25:04.661Z,947.45
2023-01-15T05:25:59.594Z,947.45
2023-01-15T05:26:54.813Z,947.45
2023-01-15T05:27:55.244Z,947.45
2023-01-15T05:28:50.284Z,947.45
2023-01-15T05:29:45.371Z,947.41
2023-01-15T05:30:41.407Z,947.43
2023-01-15T05:31:36.483Z,947.39
2023-01-15T05:32:31.528Z,947.41
2023-01-15T05:33:27.741Z,947.41
2023-01-15T05:34:23.054Z,947.47
2023-01-15T05:35:18.927Z,947.47
2023-01-15T05:36:14.262Z,947.45
2023-01-15T05:37:09.352Z,947.45
2023-01-15T05:38:05.279Z,947.49
2023-01-15T05:39:00.432Z,947.45
2023-01-15T05:39:56.452Z,947.45
2023-01-15T05:40:51.489Z,947.43
2023-01-15T05:41:46.838Z,947.37
2023-01-15T05:42:42.548Z,947.35
2023-01-15T05:43:37.779Z,947.41
2023-01-15T05:44:33.101Z,947.37
2023-01-15T05:45:29.327Z,947.37
2023-01-15T05:46:24.548Z,947.41
2023-01-15T05:47:20.531Z,947.45
2023-01-15T05:48:15.796Z,947.43
2023-01-15T05:49:10.896Z,947.45
2023-01-15T05:50:06.902Z,947.53
2023-01-15T05:51:01.884Z,947.41
2023-01-15T05:51:57.981Z,947.45
2023-01-15T05:52:53.072Z,947.45
2023-01-15T05:53:48.498Z,947.49
2023-01-15T05:54:44.114Z,947.51
2023-01-15T05:55:39.464Z,947.45
2023-01-15T05:56:34.500Z,947.49
2023-01-15T05:57:30.945Z,947.49
2023-01-15T05:58:26.280Z,947.53
2023-01-15T05:59:22.328Z,947.53
2023-01-15T06:00:17.539Z,947.53
2023-01-15T06:01:12.817Z,947.57
2023-01-15T06:02:08.640Z,947.51
2023-01-15T06:03:04.090Z,947.53
2023-01-15T06:05:25.437Z,947.59
2023-01-15T06:06:20.359Z,947.61
2023-01-15T06:07:15.477Z,947.59
2023-01-15T06:08:10.751Z,947.59
2023-01-15T06:09:06.011Z,947.55
2023-01-15T06:10:01.095Z,947.55
2023-01-15T06:10:56.362Z,947.55
2023-01-15T06:11:51.408Z,947.45
2023-01-15T06:12:46.566Z,947.47
2023-01-15T06:13:41.731Z,947.45
2023-01-15T06:14:36.862Z,947.47
2023-01-15T06:15:32.119Z,947.39
2023-01-15T06:16:27.388Z,947.39
2023-01-15T06:17:22.583Z,947.39
2023-01-15T06:18:17.752Z,947.39
2023-01-15T06:19:12.852Z,947.43
2023-01-15T06:20:08.080Z,947.41
2023-01-15T06:21:03.209Z,947.35
2023-01-15T06:21:58.436Z,947.41
2023-01-15T06:22:53.580Z,947.39
2023-01-15T06:23:48.702Z,947.43
2023-01-15T06:24:43.811Z,947.31
2023-01-15T06:25:39.095Z,947.37
2023-01-15T06:26:34.241Z,947.41
2023-01-15T06:27:29.310Z,947.26
2023-01-15T06:28:24.399Z,947.31
2023-01-15T06:29:19.644Z,947.26
2023-01-15T06:30:14.729Z,947.37
2023-01-15T06:31:09.899Z,947.39
2023-01-15T06:32:05.330Z,947.33
2023-01-15T06:33:00.060Z,947.35
2023-01-15T06:33:55.279Z,947.33
2023-01-15T06:34:50.510Z,947.37
2023-01-15T06:35:45.621Z,947.33
2023-01-15T06:36:40.928Z,947.31
2023-01-15T06:37:36.390Z,947.43
2023-01-15T06:38:31.148Z,947.51
2023-01-15T06:39:26.266Z,947.51
2023-01-15T06:40:21.395Z,947.57
2023-01-15T06:41:16.533Z,947.69
2023-01-15T06:42:11.738Z,947.53
2023-01-15T06:43:06.865Z,947.47
2023-01-15T06:44:02.494Z,947.55
2023-01-15T06:44:57.228Z,947.55
2023-01-15T06:45:52.498Z,947.43
2023-01-15T06:46:47.496Z,947.47
2023-01-15T06:47:42.558Z,947.59
2023-01-15T06:48:37.739Z,947.51
2023-01-15T06:49:33.022Z,947.47
2023-01-15T06:50:28.151Z,947.43
2023-01-15T06:51:23.263Z,947.49
2023-01-15T06:52:18.382Z,947.49
2023-01-15T06:53:13.605Z,947.49
2023-01-15T06:54:08.701Z,947.55
2023-01-15T06:55:04.078Z,947.45
2023-01-15T06:55:59.037Z,947.51
2023-01-15T06:56:54.298Z,947.45
2023-01-15T06:57:49.501Z,947.45
2023-01-15T06:58:44.593Z,947.43
2023-01-15T06:59:39.818Z,947.43
2023-01-15T07:00:35.092Z,947.41
2023-01-15T07:01:30.306Z,947.45
2023-01-15T07:02:25.307Z,947.43
2023-01-15T07:03:20.526Z,947.37
2023-01-15T07:04:15.880Z,947.29
2023-01-15T07:05:11.025Z,947.39
2023-01-15T07:06:06.277Z,947.39
2023-01-15T07:07:02.031Z,947.43
2023-01-15T07:07:56.515Z,947.39
2023-01-15T07:08:51.535Z,947.47
2023-01-15T07:09:46.667Z,947.47
2023-01-15T07:10:41.745Z,947.45
2023-01-15T07:11:36.834Z,947.47
2023-01-15T07:12:31.847Z,947.47
2023-01-15T07:13:26.890Z,947.45
2023-01-15T07:14:22.069Z,947.43
2023-01-15T07:15:17.071Z,947.55
2023-01-15T07:16:12.130Z,947.49
2023-01-15T07:17:07.272Z,947.41
2023-01-15T07:18:02.212Z,947.49
2023-01-15T07:18:57.316Z,947.45
2023-01-15T07:19:52.389Z,947.45
2023-01-15T07:20:47.563Z,947.43
2023-01-15T07:21:42.556Z,947.51
2023-01-15T07:22:37.924Z,947.55
2023-01-15T07:23:32.748Z,947.47
2023-01-15T07:24:29.609Z,947.49
2023-01-15T07:25:24.710Z,947.41
2023-01-15T07:26:19.984Z,947.47
2023-01-15T07:27:15.067Z,947.43
2023-01-15T07:28:10.185Z,947.45
2023-01-15T07:29:05.148Z,947.45
2023-01-15T07:30:00.354Z,947.43
2023-01-15T07:30:55.500Z,947.45
2023-01-15T07:31:50.536Z,947.39
2023-01-15T07:32:45.656Z,947.45
2023-01-15T07:33:40.673Z,947.49
2023-01-15T07:34:35.640Z,947.51
2023-01-15T07:35:31.182Z,947.43
2023-01-15T07:36:26.171Z,947.41
2023-01-15T07:37:21.735Z,947.39
2023-01-15T07:38:17.384Z,947.41
2023-01-15T07:39:12.627Z,947.47
2023-01-15T07:40:08.284Z,947.41
2023-01-15T07:41:03.538Z,947.43
2023-01-15T07:41:59.071Z,947.43
2023-01-15T07:42:54.977Z,947.49
2023-01-15T07:43:50.063Z,947.47
2023-01-15T07:44:45.164Z,947.47
2023-01-15T07:45:41.675Z,947.45
2023-01-15T07:46:36.921Z,947.53
2023-01-15T07:47:32.715Z,947.49
2023-01-15T07:48:28.136Z,947.45
2023-01-15T07:49:23.545Z,947.47
2023-01-15T07:50:19.356Z,947.49
2023-01-15T07:51:14.564Z,947.51
2023-01-15T07:52:10.610Z,947.49
2023-01-15T07:53:05.847Z,947.53
2023-01-15T07:54:01.005Z,947.47
2023-01-15T07:54:56.829Z,947.53
2023-01-15T07:55:52.174Z,947.55
2023-01-15T07:56:47.377Z,947.55
2023-01-15T07:57:43.876Z,947.57
2023-01-15T07:58:39.259Z,947.55
2023-01-15T07:59:34.959Z,947.55
2023-01-15T08:00:30.322Z,947.57
2023-01-15T08:01:25.631Z,947.61
2023-01-15T08:02:21.329Z,947.63
2023-01-15T08:03:16.680Z,947.65
2023-01-15T08:04:12.729Z,947.74
2023-01-15T08:05:07.739Z,947.74
2023-01-15T08:06:03.269Z,947.76
2023-01-15T08:06:58.964Z,947.69
2023-01-15T08:07:54.334Z,947.74
2023-01-15T08:08:49.424Z,947.74
2023-01-15T08:09:45.973Z,947.78
2023-01-15T08:10:41.149Z,947.78
2023-01-15T08:11:36.965Z,947.80
2023-01-15T08:12:32.308Z,947.92
2023-01-15T08:13:27.886Z,947.98
2023-01-15T08:14:23.590Z,948.14
2023-01-15T08:15:18.870Z,948.24
2023-01-15T08:16:14.163Z,948.29
2023-01-15T08:17:09.376Z,948.33
2023-01-15T08:18:05.719Z,948.41
2023-01-15T08:19:00.977Z,948.49
2023-01-15T08:19:56.518Z,948.55
2023-01-15T08:20:52.208Z,948.53
2023-01-15T08:21:47.486Z,948.59
2023-01-15T08:22:43.322Z,948.59
2023-01-15T08:23:38.782Z,948.59
2023-01-15T08:24:34.049Z,948.53
2023-01-15T08:25:29.955Z,948.63
2023-01-15T08:26:25.190Z,948.77
2023-01-15T08:27:20.471Z,948.80
2023-01-15T08:28:16.956Z,948.80
2023-01-15T08:29:12.139Z,948.80
2023-01-15T08:30:07.955Z,948.82
2023-01-15T08:31:03.234Z,948.82
2023-01-15T08:31:58.542Z,948.82
2023-01-15T08:32:54.302Z,948.77
2023-01-15T08:34:51.207Z,948.65
2023-01-15T08:35:44.643Z,948.67
2023-01-15T08:36:39.935Z,948.63
2023-01-15T08:37:35.216Z,948.65
2023-01-15T08:38:30.508Z,948.75
2023-01-15T08:39:25.833Z,948.84
2023-01-15T08:40:21.177Z,948.88
2023-01-15T08:41:16.764Z,948.92
2023-01-15T08:42:11.801Z,948.94
2023-01-15T08:43:07.145Z,948.94
2023-01-15T08:44:02.605Z,948.96
2023-01-15T08:44:57.921Z,948.98
2023-01-15T08:45:53.201Z,949.04
2023-01-15T08:46:48.523Z,949.06
2023-01-15T08:47:43.875Z,949.06
2023-01-15T08:48:39.271Z,949.06
2023-01-15T08:49:34.488Z,949.06
2023-01-15T08:50:29.822Z,949.02
2023-01-15T08:51:25.113Z,949.08
2023-01-15T08:52:20.459Z,949.08
2023-01-15T08:53:15.809Z,949.14
2023-01-15T08:54:11.537Z,949.16
2023-01-15T08:55:06.580Z,949.24
2023-01-15T08:56:01.803Z,949.35
2023-01-15T08:56:57.092Z,949.47
2023-01-15T08:57:52.355Z,949.59
2023-01-15T08:58:47.611Z,949.65
2023-01-15T08:59:42.941Z,949.67
2023-01-15T09:00:38.076Z,949.69
2023-01-15T09:01:33.488Z,949.69
2023-01-15T09:02:28.632Z,949.71
2023-01-15T09:03:24.243Z,949.69
2023-01-15T09:04:19.442Z,949.71
2023-01-15T09:05:14.708Z,949.71
2023-01-15T09:06:09.955Z,949.69
2023-01-15T09:07:05.240Z,949.73
2023-01-15T09:08:00.565Z,949.69
2023-01-15T09:08:55.888Z,949.65
2023-01-15T09:09:51.353Z,949.71
2023-01-15T09:10:46.448Z,949.84
2023-01-15T09:11:41.730Z,949.88
2023-01-15T09:12:37.023Z,949.80
2023-01-15T09:13:32.362Z,949.67
2023-01-15T09:14:59.636Z,949.71
2023-01-15T09:15:24.243Z,949.84
2023-01-15T09:16:18.357Z,949.96
2023-01-15T09:17:13.634Z,949.90
2023-01-15T09:18:09.092Z,949.96
2023-01-15T09:19:04.301Z,950.00
2023-01-15T09:19:59.574Z,950.02
2023-01-15T09:20:54.881Z,950.08
2023-01-15T09:21:50.163Z,950.02
2023-01-15T09:22:45.484Z,950.04
2023-01-15T09:23:40.892Z,950.06
2023-01-15T09:24:36.224Z,950.04
2023-01-15T09:25:31.636Z,950.00
2023-01-15T09:26:26.852Z,950.08
2023-01-15T09:27:22.126Z,950.14
2023-01-15T09:28:17.446Z,950.18
2023-01-15T09:29:12.913Z,950.24
2023-01-15T09:30:08.087Z,950.33
2023-01-15T09:31:03.434Z,950.37
2023-01-15T09:31:58.753Z,950.28
2023-01-15T09:32:54.041Z,950.37
2023-01-15T09:33:49.373Z,950.39
2023-01-15T09:34:44.735Z,950.39
2023-01-15T09:35:40.183Z,950.37
2023-01-15T09:36:35.411Z,950.30
2023-01-15T09:37:30.944Z,950.30
2023-01-15T09:38:26.101Z,950.35
2023-01-15T09:39:21.408Z,950.35
2023-01-15T09:40:16.718Z,950.33
2023-01-15T09:41:12.037Z,950.45
2023-01-15T09:42:07.392Z,950.51
2023-01-15T09:43:03.095Z,950.53
2023-01-15T09:43:58.007Z,950.61
2023-01-15T09:44:53.295Z,950.63
2023-01-15T09:45:48.744Z,950.67
2023-01-15T09:46:43.945Z,950.63
2023-01-15T09:47:39.252Z,950.65
2023-01-15T09:48:34.688Z,950.67
2023-01-15T09:49:29.854Z,950.75
2023-01-15T09:50:25.160Z,950.77
2023-01-15T09:51:20.452Z,950.67
2023-01-15T09:52:15.885Z,950.67
2023-01-15T09:53:11.046Z,950.71
2023-01-15T09:54:06.352Z,950.73
2023-01-15T09:55:01.650Z,950.77
2023-01-15T09:55:57.229Z,950.80
2023-01-15T09:56:52.286Z,950.80
2023-01-15T09:57:47.588Z,950.86
2023-01-15T09:58:42.897Z,950.84
2023-01-15T09:59:38.319Z,950.82
2023-01-15T10:00:33.467Z,950.82
2023-01-15T10:01:28.844Z,950.84
2023-01-15T10:02:24.157Z,950.86
2023-01-15T10:03:19.580Z,950.90
2023-01-15T10:04:14.943Z,950.94
2023-01-15T10:05:10.271Z,950.96
2023-01-15T10:06:05.236Z,950.98
2023-01-15T10:07:00.357Z,950.96
2023-01-15T10:07:55.448Z,950.94
2023-01-15T10:08:50.616Z,950.96
2023-01-15T10:09:45.725Z,950.98
2023-01-15T10:10:40.701Z,950.96
2023-01-15T10:11:35.802Z,951.00
2023-01-15T10:12:30.883Z,950.98
2023-01-15T10:13:26.012Z,950.88
2023-01-15T10:14:21.261Z,950.88
2023-01-15T10:15:16.389Z,950.84
2023-01-15T10:16:11.283Z,950.86
2023-01-15T10:17:06.234Z,950.86
2023-01-15T10:18:01.341Z,950.88
2023-01-15T10:18:56.391Z,950.88
2023-01-15T10:19:51.483Z,950.88
2023-01-15T10:20:46.811Z,950.88
2023-01-15T10:21:41.800Z,950.86
2023-01-15T10:22:36.795Z,950.94
2023-01-15T10:23:31.883Z,951.00
2023-01-15T10:24:26.953Z,951.04
2023-01-15T10:25:22.096Z,951.08
2023-01-15T10:26:17.693Z,951.10
2023-01-15T10:27:12.922Z,951.10
2023-01-15T10:28:08.311Z,951.10
2023-01-15T10:29:03.855Z,951.12
2023-01-15T10:29:59.064Z,951.10
2023-01-15T10:30:54.631Z,951.16
2023-01-15T10:31:49.845Z,951.10
2023-01-15T10:33:00.728Z,951.12
2023-01-15T10:33:41.603Z,951.16
2023-01-15T10:34:36.024Z,951.14
2023-01-15T10:35:31.126Z,951.16
2023-01-15T10:36:26.340Z,951.22
2023-01-15T10:37:21.353Z,951.20
2023-01-15T10:38:16.372Z,951.20
2023-01-15T10:39:11.316Z,951.22
2023-01-15T10:40:06.474Z,951.24
2023-01-15T10:41:01.414Z,951.31
2023-01-15T10:41:56.561Z,951.33
2023-01-15T10:42:51.764Z,951.33
2023-01-15T10:43:46.801Z,951.24
2023-01-15T10:44:41.773Z,951.24
2023-01-15T10:45:36.901Z,951.31
2023-01-15T10:46:32.009Z,951.24
2023-01-15T10:47:27.031Z,951.31
2023-01-15T10:48:24.390Z,951.33
2023-01-15T10:49:19.660Z,951.37
2023-01-15T10:50:15.150Z,951.37
2023-01-15T10:51:10.406Z,951.37
2023-01-15T10:52:05.891Z,951.37
2023-01-15T10:53:01.331Z,951.37
2023-01-15T10:53:56.689Z,951.33
2023-01-15T10:54:52.454Z,951.24
2023-01-15T10:55:47.444Z,951.24
2023-01-15T10:56:42.828Z,951.20
2023-01-15T10:57:38.186Z,951.20
2023-01-15T10:58:33.704Z,951.22
2023-01-15T10:59:28.944Z,951.20
2023-01-15T11:00:24.480Z,951.20
2023-01-15T11:01:19.812Z,951.31
2023-01-15T11:02:15.244Z,951.31
2023-01-15T11:03:10.551Z,951.35
2023-01-15T11:04:05.967Z,951.31
2023-01-15T11:05:00.994Z,951.31
2023-01-15T11:05:56.418Z,951.35
2023-01-15T11:06:51.223Z,951.35
2023-01-15T11:08:09.125Z,951.33
2023-01-15T11:09:08.143Z,951.24
2023-01-15T11:09:37.378Z,951.24
2023-01-15T11:10:31.415Z,951.24
2023-01-15T11:11:27.436Z,951.24
2023-01-15T11:12:22.479Z,951.22
2023-01-15T11:13:17.484Z,951.24
2023-01-15T11:14:12.440Z,951.31
2023-01-15T11:15:07.558Z,951.33
2023-01-15T11:16:02.782Z,951.31
2023-01-15T11:16:57.791Z,951.31
2023-01-15T11:17:53.487Z,951.35
2023-01-15T11:18:48.024Z,951.39
2023-01-15T11:19:43.321Z,951.39
2023-01-15T11:20:38.358Z,951.43
2023-01-15T11:21:33.456Z,951.39
2023-01-15T11:22:28.526Z,951.37
2023-01-15T11:23:23.704Z,951.39
2023-01-15T11:24:18.690Z,951.45
2023-01-15T11:25:13.919Z,951.47
2023-01-15T11:26:08.852Z,951.53
2023-01-15T11:27:03.974Z,951.55
2023-01-15T11:27:59.040Z,951.61
2023-01-15T11:28:54.051Z,951.61
2023-01-15T11:29:49.162Z,951.69
2023-01-15T11:30:44.741Z,951.69
2023-01-15T11:31:39.979Z,951.73
2023-01-15T11:32:35.350Z,951.75